Time;durP1;ratioP1;P1;durP2;ratioP2;P2;SDS_P1;SDS_P2;PMS_P1;PMS_P2;Temp;Humidity;BMP_temperature;BMP_pressure;BME280_temperature;BME280_humidity;BME280_pressure;Samples;Min_cycle;Max_cycle;Signal;HPM_P1;HPM_P2
2022/05/26 00:00:10;;;;;;;3.92;2.55;;;;;20.50;101495.00;;;;5051668;28;20268;-85
2022/05/26 00:02:39;;;;;;;6.45;2.53;;;;;20.50;101498.00;;;;5053477;28;20301;-88
2022/05/26 00:05:07;;;;;;;7.82;3.13;;;;;20.60;101503.00;;;;5060249;28;20204;-87
2022/05/26 00:07:34;;;;;;;5.85;2.08;;;;;20.60;101503.00;;;;5065760;28;20219;-85
2022/05/26 00:10:02;;;;;;;3.25;2.33;;;;;20.60;101505.00;;;;5053769;28;20200;-86
2022/05/26 00:12:32;;;;;;;5.53;3.15;;;;;20.60;101508.00;;;;5061856;28;20210;-88
2022/05/26 00:15:00;;;;;;;3.92;2.53;;;;;20.60;101508.00;;;;5064036;28;20195;-88
2022/05/26 00:17:29;;;;;;;8.95;3.03;;;;;20.60;101509.00;;;;5067407;28;20199;-87
2022/05/26 00:19:58;;;;;;;5.78;2.92;;;;;20.60;101512.00;;;;5058612;28;20319;-88
2022/05/26 00:22:26;;;;;;;4.10;2.78;;;;;20.60;101511.00;;;;5062158;28;20743;-86
2022/05/26 00:24:53;;;;;;;5.18;3.53;;;;;20.60;101511.00;;;;5069057;28;20206;-86
2022/05/26 00:27:20;;;;;;;7.63;2.78;;;;;20.60;101512.00;;;;5060058;28;20230;-86
2022/05/26 00:29:48;;;;;;;6.90;3.70;;;;;20.60;101514.00;;;;5062276;28;20195;-86
2022/05/26 00:32:16;;;;;;;6.30;3.13;;;;;20.60;101511.00;;;;5062899;28;20630;-86
2022/05/26 00:34:43;;;;;;;5.53;3.50;;;;;20.70;101509.00;;;;5059056;28;20198;-86
2022/05/26 00:37:13;;;;;;;7.78;3.17;;;;;20.60;101512.00;;;;5055328;28;20196;-86
2022/05/26 00:39:41;;;;;;;4.25;3.35;;;;;20.70;101509.00;;;;5063042;28;20199;-87
2022/05/26 00:42:10;;;;;;;5.07;3.35;;;;;20.70;101508.00;;;;5051419;28;20231;-84
2022/05/26 00:44:38;;;;;;;6.55;3.70;;;;;20.70;101515.00;;;;5056193;28;20680;-84
2022/05/26 00:47:10;;;;;;;3.97;2.92;;;;;20.70;101511.00;;;;5059275;28;20202;-85
2022/05/26 00:49:46;;;;;;;7.22;3.90;;;;;20.60;101516.00;;;;5060362;28;20195;-86
2022/05/26 00:52:18;;;;;;;10.63;4.07;;;;;20.60;101524.00;;;;5068751;28;20195;-85
2022/05/26 00:54:48;;;;;;;8.48;3.88;;;;;20.60;101519.00;;;;5066131;28;20202;-86
2022/05/26 00:57:19;;;;;;;6.25;3.72;;;;;20.60;101523.00;;;;5056977;28;20684;-85
2022/05/26 00:59:52;;;;;;;10.38;4.10;;;;;20.60;101513.00;;;;5057585;28;20209;-83
2022/05/26 01:02:25;;;;;;;6.57;3.25;;;;;20.70;101519.00;;;;5059841;28;20253;-86
2022/05/26 01:04:57;;;;;;;6.18;3.65;;;;;20.60;101518.00;;;;5053802;28;20249;-86
2022/05/26 01:07:28;;;;;;;7.30;3.42;;;;;20.60;101524.00;;;;5059994;28;20199;-86
2022/05/26 01:09:55;;;;;;;5.75;3.20;;;;;20.70;101526.00;;;;5050462;28;20204;-86
2022/05/26 01:12:23;;;;;;;5.68;3.95;;;;;20.70;101530.00;;;;5065367;28;20314;-88
2022/05/26 01:14:53;;;;;;;8.80;3.75;;;;;20.70;101533.00;;;;5066584;28;20202;-84
2022/05/26 01:17:32;;;;;;;6.30;4.40;;;;;20.60;101524.00;;;;5060189;28;20230;-86
2022/05/26 01:20:43;;;;;;;8.38;3.72;;;;;20.50;101530.00;;;;5059814;28;20199;-85
2022/05/26 01:23:38;;;;;;;6.57;3.33;;;;;20.50;101531.00;;;;5043293;28;20307;-86
2022/05/26 01:26:26;;;;;;;8.57;3.80;;;;;20.50;101536.00;;;;5055743;28;20197;-85
2022/05/26 01:29:33;;;;;;;5.88;3.63;;;;;20.60;101538.00;;;;5061679;28;20237;-87
2022/05/26 01:32:09;;;;;;;5.35;3.53;;;;;20.60;101546.00;;;;5058744;28;20199;-86
2022/05/26 01:34:46;;;;;;;7.55;3.47;;;;;20.60;101540.00;;;;5058131;28;20206;-85
2022/05/26 01:37:27;;;;;;;8.20;3.90;;;;;20.60;101541.00;;;;5061992;28;20201;-85
2022/05/26 01:39:59;;;;;;;9.93;4.20;;;;;20.60;101547.00;;;;5061505;28;20203;-86
2022/05/26 01:42:36;;;;;;;7.28;3.70;;;;;20.60;101548.00;;;;5054958;28;20237;-86
2022/05/26 01:45:08;;;;;;;8.60;3.42;;;;;20.60;101549.00;;;;5065013;28;20198;-86
2022/05/26 01:47:50;;;;;;;8.32;4.35;;;;;20.60;101552.00;;;;5058528;28;20223;-86
2022/05/26 01:50:26;;;;;;;11.57;4.13;;;;;20.60;101555.00;;;;5067231;28;20198;-84
2022/05/26 01:53:08;;;;;;;10.30;3.63;;;;;20.60;101558.00;;;;5064948;28;20209;-86
2022/05/26 01:55:41;;;;;;;10.15;4.13;;;;;20.60;101553.00;;;;5069902;28;20199;-85
2022/05/26 01:58:12;;;;;;;11.13;3.70;;;;;20.60;101550.00;;;;5069288;28;20201;-87
2022/05/26 02:00:40;;;;;;;9.07;4.10;;;;;20.60;101556.00;;;;5063803;28;20254;-85
2022/05/26 02:03:12;;;;;;;8.50;3.25;;;;;20.60;101558.00;;;;5070018;28;20226;-85
2022/05/26 02:05:43;;;;;;;9.63;3.45;;;;;20.60;101564.00;;;;5051409;28;20198;-85
2022/05/26 02:08:16;;;;;;;7.88;3.63;;;;;20.60;101565.00;;;;5066367;28;20210;-86
2022/05/26 02:10:48;;;;;;;9.75;3.83;;;;;20.70;101566.00;;;;5069397;28;20202;-86
2022/05/26 02:13:21;;;;;;;12.20;3.50;;;;;20.60;101572.00;;;;5067156;28;20260;-82
2022/05/26 02:15:55;;;;;;;6.93;3.25;;;;;20.70;101577.00;;;;5065527;28;20207;-84
2022/05/26 02:18:28;;;;;;;4.90;2.92;;;;;20.70;101572.00;;;;5057240;28;20550;-83
2022/05/26 02:20:58;;;;;;;8.32;3.28;;;;;20.70;101570.00;;;;5066402;28;20716;-85
2022/05/26 02:23:32;;;;;;;11.55;4.30;;;;;20.60;101564.00;;;;5050193;28;20227;-83
2022/05/26 02:26:01;;;;;;;8.75;3.92;;;;;20.70;101573.00;;;;5053066;28;20199;-84
2022/05/26 02:29:51;;;;;;;7.28;2.95;;;;;20.70;101576.00;;;;5064082;28;20202;-86
2022/05/26 02:31:22;;;;;;;8.10;3.72;;;;;20.60;101577.00;;;;5057131;28;20571;-85
2022/05/26 02:33:53;;;;;;;7.15;3.30;;;;;20.60;101585.00;;;;5062793;28;20354;-86
2022/05/26 02:36:21;;;;;;;9.73;3.78;;;;;20.60;101578.00;;;;5059276;28;20206;-85
2022/05/26 02:38:49;;;;;;;8.13;3.30;;;;;20.60;101583.00;;;;5059515;28;20664;-85
2022/05/26 02:41:16;;;;;;;8.45;3.50;;;;;20.60;101578.00;;;;5069480;28;20223;-83
2022/05/26 02:43:44;;;;;;;10.07;3.35;;;;;20.60;101587.00;;;;5059239;28;20231;-85
2022/05/26 02:46:16;;;;;;;8.77;3.38;;;;;20.60;101584.00;;;;5063827;28;20199;-83
2022/05/26 02:49:02;;;;;;;6.72;3.17;;;;;20.50;101587.00;;;;5062958;28;20216;-84
2022/05/26 02:51:37;;;;;;;9.73;3.03;;;;;20.60;101587.00;;;;5067317;28;20190;-85
2022/05/26 02:54:13;;;;;;;9.07;4.05;;;;;20.50;101597.00;;;;5061153;28;20277;-83
2022/05/26 02:56:47;;;;;;;9.27;3.10;;;;;20.50;101598.00;;;;5059302;28;20198;-84
2022/05/26 02:59:23;;;;;;;7.13;2.85;;;;;20.50;101600.00;;;;5058291;28;20660;-85
2022/05/26 03:01:55;;;;;;;5.97;2.85;;;;;20.50;101598.00;;;;5066259;28;20234;-85
2022/05/26 03:04:29;;;;;;;10.25;3.15;;;;;20.50;101595.00;;;;5054224;28;20197;-84
2022/05/26 03:07:01;;;;;;;11.07;3.40;;;;;20.50;101601.00;;;;5060462;28;20238;-84
2022/05/26 03:09:28;;;;;;;12.50;3.17;;;;;20.50;101605.00;;;;5053204;28;20237;-84
2022/05/26 03:11:59;;;;;;;8.60;3.90;;;;;20.50;101604.00;;;;5066927;28;20222;-84
2022/05/26 03:14:27;;;;;;;11.35;4.20;;;;;20.50;101602.00;;;;5063175;28;20199;-85
2022/05/26 03:16:54;;;;;;;10.50;3.13;;;;;20.50;101612.00;;;;5052311;28;20212;-85
2022/05/26 03:19:22;;;;;;;10.10;3.10;;;;;20.50;101614.00;;;;5061053;28;20194;-85
2022/05/26 03:21:51;;;;;;;7.95;3.13;;;;;20.50;101617.00;;;;5060371;28;20290;-85
2022/05/26 03:24:18;;;;;;;7.50;3.70;;;;;20.50;101612.00;;;;5067256;28;20198;-85
2022/05/26 03:26:46;;;;;;;8.55;3.58;;;;;20.50;101619.00;;;;5058208;28;20195;-85
2022/05/26 03:29:13;;;;;;;8.85;3.65;;;;;20.50;101620.00;;;;5061624;28;20202;-85
2022/05/26 03:31:40;;;;;;;8.88;3.20;;;;;20.50;101623.00;;;;5064527;28;20729;-84
2022/05/26 03:42:23;;;;;;;6.70;2.85;;;;;20.40;101618.00;;;;5061154;28;20234;-85
2022/05/26 03:44:51;;;;;;;9.15;3.00;;;;;20.40;101628.00;;;;5068367;28;20202;-86
2022/05/26 03:47:18;;;;;;;5.50;2.65;;;;;20.40;101633.00;;;;5066078;28;20195;-85
2022/05/26 03:49:46;;;;;;;7.25;2.78;;;;;20.40;101625.00;;;;5067710;28;20535;-86
2022/05/26 03:52:15;;;;;;;6.28;2.78;;;;;20.40;101630.00;;;;5055067;28;20620;-86
2022/05/26 03:54:43;;;;;;;10.27;2.58;;;;;20.40;101634.00;;;;5048547;28;20199;-86
2022/05/26 03:57:11;;;;;;;6.03;2.47;;;;;20.40;101635.00;;;;5062207;28;20684;-85
2022/05/26 03:59:41;;;;;;;8.05;3.38;;;;;20.40;101638.00;;;;5061861;28;20202;-85
2022/05/26 04:02:09;;;;;;;9.88;2.78;;;;;20.40;101643.00;;;;5065771;28;20227;-85
2022/05/26 04:04:36;;;;;;;9.38;2.40;;;;;20.40;101641.00;;;;5056104;28;20198;-85
2022/05/26 04:07:04;;;;;;;6.18;2.70;;;;;20.40;101654.00;;;;5069940;28;20195;-86
2022/05/26 04:09:33;;;;;;;9.88;3.13;;;;;20.40;101651.00;;;;5066603;28;20285;-86
2022/05/26 04:12:00;;;;;;;5.68;2.58;;;;;20.40;101656.00;;;;5057582;28;20195;-86
2022/05/26 04:14:27;;;;;;;7.85;2.80;;;;;20.40;101654.00;;;;5063624;28;20205;-85
2022/05/26 04:16:55;;;;;;;9.45;2.63;;;;;20.40;101651.00;;;;5060553;28;20203;-86
2022/05/26 04:19:22;;;;;;;8.48;2.55;;;;;20.40;101657.00;;;;5056107;28;20205;-86
2022/05/26 04:24:35;;;;;;;5.85;2.38;;;;;20.40;101662.00;;;;5053723;28;20221;-85
2022/05/26 04:27:03;;;;;;;8.90;2.30;;;;;20.40;101667.00;;;;5065066;28;20341;-85
2022/05/26 04:29:30;;;;;;;6.28;2.72;;;;;20.50;101671.00;;;;5061306;28;20729;-86
2022/05/26 04:31:57;;;;;;;12.10;2.92;;;;;20.40;101677.00;;;;5061877;28;20199;-86
2022/05/26 04:34:25;;;;;;;7.80;2.53;;;;;20.50;101677.00;;;;5064853;28;20207;-87
2022/05/26 04:36:52;;;;;;;7.85;2.72;;;;;20.50;101682.00;;;;5061203;28;20200;-85
2022/05/26 04:39:20;;;;;;;9.18;2.38;;;;;20.50;101692.00;;;;5065518;28;20203;-84
2022/05/26 04:41:49;;;;;;;8.25;1.95;;;;;20.50;101695.00;;;;5066076;28;20322;-84
2022/05/26 04:44:18;;;;;;;8.15;3.17;;;;;20.50;101691.00;;;;5055409;28;20219;-84
2022/05/26 04:46:47;;;;;;;6.57;2.63;;;;;20.50;101695.00;;;;5063649;28;20206;-85
2022/05/26 04:49:14;;;;;;;8.27;2.42;;;;;20.60;101693.00;;;;5054190;28;20206;-85
2022/05/26 04:51:42;;;;;;;10.60;1.90;;;;;20.60;101700.00;;;;5073225;28;20191;-85
2022/05/26 04:54:10;;;;;;;8.05;2.58;;;;;20.60;101703.00;;;;5058300;28;20206;-84
2022/05/26 04:56:40;;;;;;;9.00;2.33;;;;;20.60;101714.00;;;;5048057;28;20198;-84
2022/05/26 04:59:09;;;;;;;8.65;2.22;;;;;20.60;101710.00;;;;5052155;28;20253;-85
2022/05/26 05:01:36;;;;;;;6.72;2.65;;;;;20.70;101709.00;;;;5060869;28;20627;-84
2022/05/26 05:04:03;;;;;;;8.15;1.70;;;;;20.70;101705.00;;;;5061582;28;20218;-85
2022/05/26 05:06:31;;;;;;;6.43;2.03;;;;;20.70;101714.00;;;;5067479;28;20214;-85
2022/05/26 05:08:58;;;;;;;8.00;2.30;;;;;20.70;101708.00;;;;5066966;28;20206;-84
2022/05/26 05:11:26;;;;;;;6.70;1.83;;;;;20.80;101718.00;;;;5061932;28;20195;-85
2022/05/26 05:13:54;;;;;;;7.28;1.92;;;;;20.80;101711.00;;;;5055390;28;20210;-85
2022/05/26 05:16:27;;;;;;;3.88;1.70;;;;;20.70;101715.00;;;;5054430;28;20278;-85
2022/05/26 05:18:57;;;;;;;5.70;2.00;;;;;20.80;101721.00;;;;5058215;28;20196;-84
2022/05/26 05:21:28;;;;;;;6.60;1.73;;;;;20.80;101722.00;;;;5057978;28;20203;-84
2022/05/26 05:23:58;;;;;;;5.72;2.00;;;;;20.90;101725.00;;;;5059933;28;20230;-85
2022/05/26 05:26:30;;;;;;;6.88;1.88;;;;;20.90;101725.00;;;;5062001;28;20195;-85
2022/05/26 05:29:02;;;;;;;5.70;2.00;;;;;20.90;101728.00;;;;5057705;28;20199;-85
2022/05/26 05:31:38;;;;;;;6.18;1.95;;;;;21.00;101739.00;;;;5056470;28;20191;-84
2022/05/26 05:34:10;;;;;;;6.03;2.05;;;;;21.00;101739.00;;;;5059816;28;20191;-84
2022/05/26 05:36:39;;;;;;;4.63;2.00;;;;;21.00;101737.00;;;;5056445;28;20218;-86
2022/05/26 05:39:07;;;;;;;5.75;1.95;;;;;21.10;101740.00;;;;5060499;28;20727;-85
2022/05/26 05:41:36;;;;;;;9.18;1.45;;;;;21.10;101745.00;;;;5064048;28;20226;-86
2022/05/26 05:44:05;;;;;;;3.97;1.08;;;;;21.10;101746.00;;;;5067418;28;20230;-87
2022/05/26 05:46:53;;;;;;;11.80;2.00;;;;;21.10;101741.00;;;;5071480;28;20191;-89
2022/05/26 05:49:22;;;;;;;6.20;1.88;;;;;21.20;101745.00;;;;5066088;28;20192;-88
2022/05/26 05:51:54;;;;;;;8.50;1.50;;;;;21.20;101750.00;;;;5062207;28;20211;-90
2022/05/26 05:54:22;;;;;;;6.57;2.03;;;;;21.20;101756.00;;;;5069639;28;20207;-89
2022/05/26 05:56:51;;;;;;;6.38;1.60;;;;;21.20;101750.00;;;;5060235;28;22064;-89
2022/05/26 05:59:20;;;;;;;5.35;2.00;;;;;21.20;101754.00;;;;5061777;28;20191;-93
2022/05/26 06:01:49;;;;;;;5.57;1.65;;;;;21.30;101753.00;;;;5059114;28;20223;-90
2022/05/26 06:04:16;;;;;;;4.15;1.13;;;;;21.40;101760.00;;;;5059375;28;20226;-88
2022/05/26 06:06:45;;;;;;;5.63;1.38;;;;;21.40;101763.00;;;;5058633;28;20195;-90
2022/05/26 06:09:17;;;;;;;6.13;1.35;;;;;21.50;101766.00;;;;5059292;28;20222;-92
2022/05/26 06:11:45;;;;;;;4.70;1.60;;;;;21.60;101771.00;;;;5059598;28;20188;-90
2022/05/26 06:14:13;;;;;;;3.58;1.40;;;;;21.60;101768.00;;;;5073116;28;20526;-90
2022/05/26 06:16:41;;;;;;;3.20;1.35;;;;;21.60;101779.00;;;;5067441;28;20196;-90
2022/05/26 06:19:10;;;;;;;4.10;1.23;;;;;21.60;101778.00;;;;5060591;28;20206;-91
2022/05/26 06:21:49;;;;;;;10.25;1.40;;;;;21.60;101777.00;;;;5065354;28;20187;-89
2022/05/26 06:24:22;;;;;;;4.32;1.60;;;;;21.70;101778.00;;;;5061093;28;20230;-92
2022/05/26 06:29:49;;;;;;;4.10;1.40;;;;;21.70;101776.00;;;;5063959;28;20204;-90
2022/05/26 06:29:51;;;;;;;2.90;1.00;;;;;21.80;101788.00;;;;5064088;28;20199;-89
2022/05/26 06:38:04;;;;;;;3.13;1.38;;;;;22.00;101798.00;;;;5014497;28;20299;-89
2022/05/26 06:40:31;;;;;;;4.53;1.25;;;;;22.10;101795.00;;;;5071429;28;20653;-87
2022/05/26 06:43:01;;;;;;;6.05;1.42;;;;;22.10;101807.00;;;;5064990;28;20222;-90
2022/05/26 06:45:30;;;;;;;5.38;1.35;;;;;22.10;101804.00;;;;5073024;28;20199;-88
2022/05/26 06:47:58;;;;;;;3.85;1.25;;;;;22.10;101805.00;;;;5072397;28;20530;-88
2022/05/26 06:50:26;;;;;;;6.97;1.20;;;;;22.20;101808.00;;;;5060454;28;20202;-87
2022/05/26 06:52:53;;;;;;;2.10;1.13;;;;;22.30;101806.00;;;;5067540;28;20199;-82
2022/05/26 06:55:21;;;;;;;4.55;1.00;;;;;22.30;101808.00;;;;5067399;28;20202;-82
2022/05/26 06:57:49;;;;;;;2.30;1.10;;;;;22.40;101817.00;;;;5068379;28;20198;-86
2022/05/26 07:00:18;;;;;;;6.30;1.83;;;;;22.50;101819.00;;;;5061139;28;20214;-80
2022/05/26 07:02:46;;;;;;;5.50;1.13;;;;;22.50;101827.00;;;;5061377;28;20228;-81
2022/05/26 07:05:16;;;;;;;2.20;0.93;;;;;22.60;101823.00;;;;5062547;28;20187;-79
2022/05/26 07:07:45;;;;;;;4.88;0.98;;;;;22.60;101825.00;;;;5064226;28;20207;-78
2022/05/26 07:10:14;;;;;;;4.22;1.02;;;;;22.70;101825.00;;;;5068950;28;20593;-79
2022/05/26 07:12:42;;;;;;;6.10;1.60;;;;;22.70;101825.00;;;;5059361;28;20200;-79
2022/05/26 07:15:11;;;;;;;2.35;1.00;;;;;22.80;101822.00;;;;5060289;28;20207;-80
2022/05/26 07:17:39;;;;;;;2.95;1.27;;;;;22.90;101823.00;;;;5069031;28;20237;-80
2022/05/26 07:20:09;;;;;;;2.75;1.15;;;;;23.00;101833.00;;;;5071134;28;20222;-80
2022/05/26 07:22:36;;;;;;;1.63;0.88;;;;;23.10;101829.00;;;;5077799;28;20199;-81
2022/05/26 07:25:06;;;;;;;3.88;1.30;;;;;23.10;101837.00;;;;5069924;28;20700;-81
2022/05/26 07:27:34;;;;;;;2.63;1.35;;;;;23.20;101845.00;;;;5056924;28;20211;-79
2022/05/26 07:30:01;;;;;;;4.32;1.10;;;;;23.30;101835.00;;;;5070230;28;20214;-80
2022/05/26 07:32:28;;;;;;;3.42;0.88;;;;;23.40;101848.00;;;;5079819;28;20281;-82
2022/05/26 07:34:56;;;;;;;4.28;1.10;;;;;23.50;101847.00;;;;5075042;28;20425;-81
2022/05/26 07:42:58;;;;;;;2.28;1.08;;;;;23.70;101857.00;;;;5048618;28;20221;-81
2022/05/26 07:45:29;;;;;;;2.03;0.60;;;;;23.70;101865.00;;;;5064505;28;20233;-84
2022/05/26 07:47:59;;;;;;;2.05;0.73;;;;;23.80;101860.00;;;;5062087;28;20203;-86
2022/05/26 07:50:26;;;;;;;2.70;0.95;;;;;24.00;101862.00;;;;5059058;28;20256;-83
2022/05/26 07:52:55;;;;;;;3.00;1.10;;;;;24.10;101862.00;;;;5049012;28;20231;-87
2022/05/26 07:55:23;;;;;;;3.15;0.80;;;;;24.10;101863.00;;;;5057577;28;20198;-83
2022/05/26 07:57:53;;;;;;;2.17;0.80;;;;;24.20;101851.00;;;;5064670;28;20550;-86
2022/05/26 08:00:21;;;;;;;2.15;0.60;;;;;24.30;101847.00;;;;5058877;28;20191;-87
2022/05/26 08:02:49;;;;;;;2.05;1.00;;;;;24.40;101845.00;;;;5062033;28;20666;-85
2022/05/26 08:05:16;;;;;;;2.10;0.70;;;;;24.50;101837.00;;;;5065738;28;20227;-84
2022/05/26 08:07:44;;;;;;;2.38;0.90;;;;;24.60;101844.00;;;;5056624;28;20191;-87
2022/05/26 08:10:12;;;;;;;3.00;0.93;;;;;24.60;101842.00;;;;5051926;28;20228;-85
2022/05/26 08:12:40;;;;;;;2.05;0.90;;;;;24.60;101852.00;;;;5058953;28;20195;-83
2022/05/26 08:15:10;;;;;;;1.85;0.82;;;;;24.70;101844.00;;;;5064860;28;20199;-82
2022/05/26 08:17:38;;;;;;;3.40;1.02;;;;;24.80;101847.00;;;;5065375;28;20226;-81
2022/05/26 08:20:07;;;;;;;2.10;1.30;;;;;24.90;101852.00;;;;5068116;28;20673;-81
2022/05/26 08:22:34;;;;;;;3.47;1.10;;;;;25.00;101857.00;;;;5066755;28;20230;-82
2022/05/26 08:25:02;;;;;;;2.65;1.02;;;;;25.00;101862.00;;;;5059843;28;20231;-82
2022/05/26 08:27:29;;;;;;;2.47;0.82;;;;;25.10;101870.00;;;;5056458;28;20697;-84
2022/05/26 08:29:59;;;;;;;2.08;0.82;;;;;25.10;101869.00;;;;5062653;28;20195;-81
2022/05/26 08:32:26;;;;;;;5.28;1.70;;;;;25.10;101877.00;;;;5061575;28;20209;-81
2022/05/26 08:34:58;;;;;;;4.78;1.50;;;;;25.10;101877.00;;;;5066869;28;20203;-82
2022/05/26 08:37:25;;;;;;;2.80;1.42;;;;;25.10;101890.00;;;;5068420;28;20206;-81
2022/05/26 08:39:53;;;;;;;2.53;1.45;;;;;25.20;101891.00;;;;5068926;28;20222;-82
2022/05/26 08:42:24;;;;;;;3.25;1.73;;;;;25.20;101889.00;;;;5063319;28;20705;-81
2022/05/26 08:44:55;;;;;;;5.03;1.83;;;;;25.20;101890.00;;;;5068585;28;20223;-81
2022/05/26 08:47:29;;;;;;;3.78;1.30;;;;;25.10;101890.00;;;;5068892;28;20210;-82
2022/05/26 08:50:01;;;;;;;1.77;1.58;;;;;25.10;101896.00;;;;5069121;28;20200;-82
2022/05/26 08:52:34;;;;;;;2.70;1.33;;;;;25.10;101897.00;;;;5051758;28;20210;-81
2022/05/26 08:55:06;;;;;;;3.13;1.40;;;;;25.20;101894.00;;;;5051506;28;20827;-83
2022/05/26 08:57:42;;;;;;;3.00;1.23;;;;;25.20;101893.00;;;;5060892;28;20590;-82
2022/05/26 09:00:13;;;;;;;2.72;1.63;;;;;25.30;101902.00;;;;5069645;28;20214;-82
2022/05/26 09:02:42;;;;;;;1.80;1.17;;;;;25.40;101911.00;;;;5070517;28;20215;-84
2022/05/26 09:05:13;;;;;;;3.03;1.45;;;;;25.40;101910.00;;;;5071680;28;20327;-82
2022/05/26 09:13:26;;;;;;;3.03;1.17;;;;;25.30;101918.00;;;;5072021;28;20229;-82
2022/05/26 09:15:53;;;;;;;3.58;1.00;;;;;25.40;101919.00;;;;5072257;28;20210;-81
2022/05/26 09:18:23;;;;;;;4.25;1.25;;;;;25.30;101923.00;;;;5071534;28;20199;-81
2022/05/26 09:20:51;;;;;;;2.00;1.13;;;;;25.30;101932.00;;;;5068622;28;20218;-81
2022/05/26 09:23:24;;;;;;;5.65;1.17;;;;;25.30;101926.00;;;;5071767;28;20764;-82
2022/05/26 09:25:54;;;;;;;2.67;1.00;;;;;25.30;101939.00;;;;5068514;28;20202;-82
2022/05/26 09:28:40;;;;;;;4.70;1.17;;;;;25.20;101925.00;;;;5071862;28;20990;-82
2022/05/26 09:31:32;;;;;;;2.10;1.10;;;;;25.10;101924.00;;;;5053520;28;20202;-81
2022/05/26 09:34:07;;;;;;;1.88;0.70;;;;;25.20;101928.00;;;;5051760;28;20243;-82
2022/05/26 09:36:40;;;;;;;3.22;0.93;;;;;25.30;101926.00;;;;5056750;28;20191;-83
2022/05/26 09:39:08;;;;;;;1.98;0.85;;;;;25.40;101935.00;;;;5071620;28;20282;-82
2022/05/26 09:41:41;;;;;;;0.63;0.35;;;;;25.40;101938.00;;;;5071586;28;20242;-82
2022/05/26 09:44:26;;;;;;;4.35;0.98;;;;;25.30;101945.00;;;;5071747;28;20223;-83
2022/05/26 09:46:57;;;;;;;1.45;0.90;;;;;25.40;101940.00;;;;5051647;28;20195;-82
2022/05/26 09:49:31;;;;;;;2.47;0.80;;;;;25.40;101946.00;;;;5051433;28;20203;-82
2022/05/26 09:52:12;;;;;;;1.52;0.52;;;;;25.40;101944.00;;;;5053149;28;20195;-81
2022/05/26 09:54:40;;;;;;;2.80;1.00;;;;;25.60;101962.00;;;;5071260;28;20209;-83
2022/05/26 09:57:17;;;;;;;3.95;1.00;;;;;25.40;101957.00;;;;5053336;28;20213;-82
2022/05/26 09:59:45;;;;;;;1.70;0.70;;;;;25.50;101960.00;;;;5054448;28;20230;-82
2022/05/26 10:02:16;;;;;;;7.53;1.00;;;;;25.50;101968.00;;;;5071014;28;20223;-84
2022/05/26 10:05:03;;;;;;;2.72;0.90;;;;;25.40;101972.00;;;;5070660;28;20231;-81
2022/05/26 10:07:51;;;;;;;3.83;0.75;;;;;25.30;101972.00;;;;5070244;28;20210;-81
2022/05/26 10:10:25;;;;;;;3.50;0.90;;;;;25.50;101974.00;;;;5065623;28;20207;-81
2022/05/26 10:13:04;;;;;;;1.48;0.55;;;;;25.50;101966.00;;;;5063259;28;20286;-83
2022/05/26 10:15:45;;;;;;;2.50;1.00;;;;;25.60;101969.00;;;;5050971;28;20207;-83
2022/05/26 10:18:39;;;;;;;2.42;1.00;;;;;25.70;101966.00;;;;5050286;28;20196;-85
2022/05/26 10:21:13;;;;;;;3.95;0.60;;;;;25.70;101964.00;;;;5051729;28;20279;-82
2022/05/26 10:24:18;;;;;;;2.38;0.60;;;;;25.60;101965.00;;;;5050642;28;20230;-83
2022/05/26 10:26:53;;;;;;;2.78;0.80;;;;;25.80;101967.00;;;;5061859;28;20203;-81
2022/05/26 10:29:33;;;;;;;3.70;0.60;;;;;25.80;101950.00;;;;5050445;28;20208;-84
2022/05/26 10:32:13;;;;;;;4.70;0.90;;;;;25.80;101960.00;;;;5050972;28;20195;-82
2022/05/26 10:34:57;;;;;;;2.90;0.60;;;;;25.80;101964.00;;;;5050752;28;20206;-82
2022/05/26 10:37:34;;;;;;;4.25;1.35;;;;;25.90;101965.00;;;;5063527;28;20202;-82
2022/05/26 10:40:16;;;;;;;1.63;0.80;;;;;25.90;101964.00;;;;5072175;28;20277;-82
2022/05/26 10:42:50;;;;;;;1.75;0.60;;;;;26.00;101966.00;;;;5050870;28;20643;-78
2022/05/26 10:45:24;;;;;;;7.13;1.40;;;;;26.00;101975.00;;;;5062566;28;20233;-80
2022/05/26 10:47:59;;;;;;;3.20;0.95;;;;;26.00;101976.00;;;;5069903;28;20206;-79
2022/05/26 10:50:30;;;;;;;2.33;0.90;;;;;25.90;101968.00;;;;5061039;28;20573;-82
2022/05/26 10:53:04;;;;;;;2.25;0.77;;;;;25.90;101967.00;;;;5050389;28;20200;-83
2022/05/26 10:55:43;;;;;;;2.88;0.80;;;;;25.80;101970.00;;;;5055114;28;20202;-79
2022/05/26 10:58:17;;;;;;;3.85;1.23;;;;;25.80;101961.00;;;;5070189;28;20201;-80
2022/05/26 11:00:49;;;;;;;4.13;0.95;;;;;25.80;101963.00;;;;5066325;28;20201;-83
2022/05/26 11:03:23;;;;;;;1.98;0.68;;;;;25.80;101958.00;;;;5069461;28;20607;-81
2022/05/26 11:05:55;;;;;;;3.72;0.93;;;;;25.80;101979.00;;;;5070110;28;20309;-80
2022/05/26 11:08:38;;;;;;;1.77;0.52;;;;;25.80;101972.00;;;;5064544;28;20270;-81
2022/05/26 11:11:12;;;;;;;5.00;1.17;;;;;25.80;101966.00;;;;5070080;28;20571;-80
2022/05/26 11:13:48;;;;;;;1.40;0.70;;;;;25.80;101973.00;;;;5069792;28;20692;-80
2022/05/26 11:19:32;;;;;;;1.42;0.63;;;;;25.80;101959.00;;;;5070012;28;20237;-80
2022/05/26 11:22:00;;;;;;;1.67;0.60;;;;;25.90;101961.00;;;;5057829;28;20203;-80
2022/05/26 11:24:29;;;;;;;2.53;0.85;;;;;25.90;101961.00;;;;5049370;28;20310;-81
2022/05/26 11:27:09;;;;;;;1.75;0.60;;;;;25.90;101963.00;;;;5064727;28;20203;-81
2022/05/26 11:29:39;;;;;;;2.25;0.52;;;;;25.90;101968.00;;;;5068749;28;20213;-80
2022/05/26 11:38:02;;;;;;;1.73;0.57;;;;;25.90;101941.00;;;;5069537;28;20240;-82
2022/05/26 11:40:35;;;;;;;3.22;0.40;;;;;25.90;101952.00;;;;5068981;28;20198;-82
2022/05/26 11:43:07;;;;;;;1.92;0.68;;;;;25.90;101951.00;;;;5052433;28;20233;-80
2022/05/26 11:45:47;;;;;;;3.10;0.80;;;;;25.90;101957.00;;;;5063614;28;20310;-81
2022/05/26 11:48:43;;;;;;;2.15;0.50;;;;;25.80;101957.00;;;;5069658;28;20202;-80
2022/05/26 11:51:34;;;;;;;0.70;0.30;;;;;25.80;101947.00;;;;5069874;28;20206;-81
2022/05/26 11:54:02;;;;;;;1.23;0.40;;;;;25.90;101958.00;;;;5070101;28;20584;-82
2022/05/26 11:56:50;;;;;;;1.15;0.38;;;;;25.80;101962.00;;;;5070390;28;20199;-82
2022/05/26 11:59:46;;;;;;;3.70;0.57;;;;;25.90;101952.00;;;;5069988;28;20203;-82
2022/05/26 12:02:39;;;;;;;1.10;0.35;;;;;25.80;101971.00;;;;5057691;28;20300;-82
2022/05/26 12:05:45;;;;;;;1.05;0.40;;;;;25.80;101962.00;;;;5056864;28;20705;-81
2022/05/26 12:08:29;;;;;;;4.78;0.65;;;;;25.80;101960.00;;;;5055329;28;20261;-81
2022/05/26 12:10:58;;;;;;;2.53;0.60;;;;;26.00;101962.00;;;;5068667;28;20252;-82
2022/05/26 12:13:33;;;;;;;2.03;0.40;;;;;25.90;101970.00;;;;5069258;28;20194;-81
2022/05/26 12:16:11;;;;;;;2.58;0.50;;;;;25.90;101977.00;;;;5067944;28;20202;-81
2022/05/26 12:18:43;;;;;;;1.98;0.43;;;;;26.00;101972.00;;;;5067449;28;20195;-81
2022/05/26 12:21:16;;;;;;;3.00;0.60;;;;;26.00;101970.00;;;;5068912;28;20201;-81
2022/05/26 12:23:44;;;;;;;2.58;0.90;;;;;26.00;101972.00;;;;5069540;28;20198;-81
2022/05/26 12:26:30;;;;;;;3.00;0.75;;;;;26.00;101976.00;;;;5062487;28;20629;-81
2022/05/26 12:29:37;;;;;;;1.67;0.52;;;;;26.00;101967.00;;;;5067023;28;20215;-81
2022/05/26 12:32:10;;;;;;;1.55;0.40;;;;;26.10;101968.00;;;;5048861;28;20210;-83
2022/05/26 12:34:48;;;;;;;3.03;0.65;;;;;26.10;101958.00;;;;5048014;28;20192;-82
2022/05/26 12:37:25;;;;;;;2.00;0.50;;;;;26.10;101958.00;;;;5049306;28;20207;-79
2022/05/26 12:40:29;;;;;;;2.60;0.60;;;;;26.00;101968.00;;;;5047867;28;20290;-80
2022/05/26 12:43:21;;;;;;;2.05;0.80;;;;;25.90;101960.00;;;;5049447;28;20199;-82
2022/05/26 12:45:53;;;;;;;4.53;1.20;;;;;25.90;101957.00;;;;5067717;28;20226;-82
2022/05/26 12:48:42;;;;;;;5.93;1.35;;;;;25.90;101954.00;;;;5068793;28;20210;-81
2022/05/26 12:51:12;;;;;;;0.77;0.30;;;;;25.90;101947.00;;;;5067912;28;20199;-82
2022/05/26 12:53:47;;;;;;;1.33;0.50;;;;;25.90;101952.00;;;;5068156;28;20195;-79
2022/05/26 12:56:19;;;;;;;1.33;0.50;;;;;25.90;101949.00;;;;5053886;28;20194;-79
2022/05/26 12:58:53;;;;;;;2.05;0.80;;;;;25.90;101938.00;;;;5055399;28;20196;-81
2022/05/26 13:01:25;;;;;;;1.13;0.68;;;;;26.00;101942.00;;;;5061513;28;20214;-82
2022/05/26 13:04:02;;;;;;;1.70;0.52;;;;;26.00;101941.00;;;;5068411;28;20290;-81
2022/05/26 13:06:32;;;;;;;1.13;0.40;;;;;26.00;101957.00;;;;5067232;28;20686;-81
2022/05/26 13:09:06;;;;;;;2.75;0.63;;;;;26.00;101955.00;;;;5048349;28;20200;-80
2022/05/26 13:11:37;;;;;;;1.98;0.50;;;;;26.00;101952.00;;;;5059825;28;20196;-80